メインページ
METAR-TAF:

METAR-TAF

空港 :

サーリー, イラン

緯度: 36-38-09N, 経度: 53-11-37E, 海抜: 11m

現時点の気象観測

当レポートは46分前の05:00(UTC)に作成
東/南東の風 4kt
気温 9°C
湿度 93%
気圧 1022 hPa
視程: 5000m
高度2500ftの雲はほとんどない, 積乱雲.
高度3000ftの雲は散在している
高度8000ftの曇り

METAR: OINZ 210500Z 12004KT 5000 BR FEW025CB SCT030 OVC080 09/08 Q1022

時間: 09:16 (05:46 UTC)


TAF: 見つかりません

4,000以上の空港の気象観測と天気予報(METAR報とTAF報)

利用可能な観測所は地図上に黄色い丸と赤い丸で示す。

丸の上にカーソルを重ねると観測所名を参照できる。

次にクリックすると気象観測と天気予報を参照できる。

マップの切り替え:黒色「×」印の緑ボタンをクリックして拡大、「-」印の緑ボタンをクリックして縮小、緑色の三角印をクリックして隣りの地図に切り替え


METAR-TAF: